This is the latest recevied weather packets stored in our database for station/object IW3HBX-13. If no packets are shown the sender has not sent any weather packets the latest 10 day(s).
| Time | Temp. | Humidity | Pressure | Rain* | Wind** | Luminosity | Snow |
|---|---|---|---|---|---|---|---|
| 1777981327 | 15.56° C | 81% | 1014.8 hPa | 0 mm | - | 111 W/m² | - |
| 1777980967 | 15.56° C | 80% | 1014.8 hPa | 0 mm | - | 111 W/m² | - |
| 1777980617 | 15.56° C | 79% | 1014.8 hPa | 0 mm | - | 110 W/m² | - |
| 1777980248 | 15.56° C | 82% | 1014.7 hPa | 0 mm | - | 239 W/m² | - |
| 1777979890 | 15.56° C | 81% | 1014.8 hPa | 0 mm | - | 195 W/m² | - |
| 1777979527 | 15.56° C | 82% | 1014.7 hPa | 0 mm | - | 336 W/m² | - |
| 1777979167 | 15.56° C | 82% | 1014.5 hPa | 0 mm | - | 390 W/m² | - |
| 1777978450 | 16.11° C | 80% | 1015 hPa | 0 mm | - | 209 W/m² | - |
| 1777978087 | 16.67° C | 77% | 1015.2 hPa | 0 mm | - | 100 W/m² | - |
| 1777977730 | 16.67° C | 77% | 1015.3 hPa | 0.51 mm | - | 120 W/m² | - |
| 1777977367 | 16.67° C | 78% | 1015.2 hPa | 0.51 mm | - | 153 W/m² | - |
| 1777976648 | 16.67° C | 76% | 1015.4 hPa | 0.76 mm | - | 127 W/m² | - |
| 1777976287 | 16.67° C | 77% | 1015.3 hPa | 0.76 mm | - | 118 W/m² | - |
| 1777975930 | 16.67° C | 79% | 1015.3 hPa | 0.76 mm | - | 172 W/m² | - |
| 1777975567 | 16.67° C | 79% | 1015.2 hPa | 0.76 mm | - | 157 W/m² | - |
| 1777974847 | 16.67° C | 79% | 1015.2 hPa | 0.76 mm | - | 229 W/m² | - |
| 1777974490 | 16.67° C | 80% | 1015.1 hPa | 0.76 mm | - | 223 W/m² | - |
| 1777974127 | 16.67° C | 78% | 1015.1 hPa | 0.51 mm | - | 246 W/m² | - |
| 1777973767 | 16.67° C | 79% | 1015.1 hPa | 0.51 mm | - | 190 W/m² | - |
| 1777973408 | 16.67° C | 79% | 1015.1 hPa | 0.51 mm | - | 153 W/m² | - |
| 1777973050 | 16.67° C | 74% | 1015.2 hPa | 0 mm | - | 128 W/m² | - |
| 1777972688 | 16.67° C | 75% | 1015.2 hPa | 0 mm | - | 140 W/m² | - |
| 1777972327 | 16.67° C | 74% | 1015.2 hPa | 0 mm | - | 152 W/m² | - |
| 1777971967 | 16.67° C | 75% | 1015.1 hPa | 0 mm | - | 156 W/m² | - |
| 1777971247 | 17.22° C | 72% | 1015 hPa | 0 mm | - | 192 W/m² | - |
* Rain latest hour (hover to see other rain measurements)
** Current wind speed in m/s (hover to see current wind gust speed)